createdAt,value
2019-02-14T00:01:10.532Z,24.57
2019-02-14T00:03:37.960Z,24.33
2019-02-14T00:06:05.371Z,25.37
2019-02-14T00:08:32.818Z,24.73
2019-02-14T00:11:00.228Z,26.60
2019-02-14T00:13:27.662Z,24.50
2019-02-14T00:15:55.081Z,25.63
2019-02-14T00:18:22.509Z,24.83
2019-02-14T00:20:49.961Z,24.27
2019-02-14T00:23:17.376Z,25.07
2019-02-14T00:25:44.808Z,24.53
2019-02-14T00:28:12.251Z,23.83
2019-02-14T00:30:39.692Z,25.73
2019-02-14T00:33:07.113Z,26.67
2019-02-14T00:35:34.543Z,25.37
2019-02-14T00:38:01.970Z,25.93
2019-02-14T00:40:29.420Z,26.37
2019-02-14T00:42:56.832Z,26.13
2019-02-14T00:45:24.278Z,25.80
2019-02-14T00:47:51.697Z,24.73
2019-02-14T00:50:19.120Z,24.93
2019-02-14T00:52:46.565Z,25.50
2019-02-14T00:55:13.987Z,26.63
2019-02-14T00:57:41.425Z,25.07
2019-02-14T01:00:08.835Z,26.70
2019-02-14T01:02:36.289Z,25.77
2019-02-14T01:05:03.702Z,27.13
2019-02-14T01:07:31.140Z,26.83
2019-02-14T01:09:58.555Z,29.13
2019-02-14T01:12:25.983Z,31.23
2019-02-14T01:14:53.431Z,32.17
2019-02-14T01:17:20.842Z,28.60
2019-02-14T01:19:48.273Z,26.97
2019-02-14T01:22:15.688Z,27.30
2019-02-14T01:24:43.130Z,25.80
2019-02-14T01:27:10.546Z,26.07
2019-02-14T01:29:37.965Z,24.93
2019-02-14T01:32:05.409Z,24.60
2019-02-14T01:34:32.812Z,24.33
2019-02-14T01:37:00.243Z,23.33
2019-02-14T01:39:27.655Z,23.67
2019-02-14T01:41:55.097Z,25.73
2019-02-14T01:44:22.528Z,23.87
2019-02-14T01:46:49.946Z,22.83
2019-02-14T01:49:17.358Z,25.23
2019-02-14T01:51:44.794Z,25.30
2019-02-14T01:54:12.204Z,23.73
2019-02-14T01:56:39.652Z,26.83
2019-02-14T01:59:07.069Z,22.13
2019-02-14T02:01:34.473Z,25.33
2019-02-14T02:04:01.972Z,23.73
2019-02-14T02:06:29.385Z,22.67
2019-02-14T02:08:56.829Z,24.57
2019-02-14T02:11:24.244Z,22.33
2019-02-14T02:13:51.691Z,27.03
2019-02-14T02:16:19.107Z,25.87
2019-02-14T02:18:46.569Z,29.03
2019-02-14T02:21:13.985Z,24.37
2019-02-14T02:23:41.397Z,24.40
2019-02-14T02:26:08.859Z,22.73
2019-02-14T02:28:36.269Z,24.73
2019-02-14T02:31:03.698Z,24.53
2019-02-14T02:33:31.143Z,24.40
2019-02-14T02:36:00.462Z,23.47
2019-02-14T02:38:25.992Z,23.70
2019-02-14T02:40:53.405Z,23.27
2019-02-14T02:43:20.841Z,23.60
2019-02-14T02:45:48.253Z,29.50
2019-02-14T02:48:15.697Z,27.80
2019-02-14T02:50:43.119Z,28.70
2019-02-14T02:53:10.563Z,26.50
2019-02-14T02:55:37.991Z,28.03
2019-02-14T02:58:05.406Z,26.83
2019-02-14T03:00:32.848Z,26.77
2019-02-14T03:03:00.292Z,25.57
2019-02-14T03:05:27.717Z,24.37
2019-02-14T03:07:55.154Z,25.83
2019-02-14T03:10:22.589Z,25.60
2019-02-14T03:12:50.006Z,26.30
2019-02-14T03:15:17.459Z,24.70
2019-02-14T03:17:44.888Z,24.70
2019-02-14T03:20:12.324Z,25.90
2019-02-14T03:22:39.771Z,23.97
2019-02-14T03:25:09.846Z,27.37
2019-02-14T03:27:37.281Z,29.73
2019-02-14T03:30:04.694Z,27.70
2019-02-14T03:32:32.131Z,26.17
2019-02-14T03:34:59.546Z,29.00
2019-02-14T03:37:26.955Z,28.30
2019-02-14T03:39:54.388Z,23.83
2019-02-14T03:42:21.805Z,23.87
2019-02-14T03:44:49.238Z,22.47
2019-02-14T03:47:16.656Z,26.33
2019-02-14T03:49:44.106Z,27.47
2019-02-14T03:52:11.520Z,26.30
2019-02-14T03:54:38.962Z,24.63
2019-02-14T03:57:06.385Z,25.13
2019-02-14T03:59:33.806Z,23.30
2019-02-14T04:02:01.217Z,27.53
2019-02-14T04:04:28.649Z,26.80
2019-02-14T04:06:56.067Z,25.20
2019-02-14T04:09:23.498Z,26.97
2019-02-14T04:11:50.932Z,24.47
2019-02-14T04:14:18.370Z,24.57
2019-02-14T04:16:45.798Z,24.90
2019-02-14T04:19:13.203Z,25.00
2019-02-14T04:21:40.640Z,24.63
2019-02-14T04:24:08.093Z,21.43
2019-02-14T04:26:35.547Z,20.93
2019-02-14T04:29:02.946Z,25.43
2019-02-14T04:31:30.648Z,26.70
2019-02-14T04:33:58.067Z,72.57
2019-02-14T04:36:25.505Z,26.57
2019-02-14T04:38:52.929Z,25.17
2019-02-14T04:41:20.356Z,23.00
2019-02-14T04:43:47.770Z,24.77
2019-02-14T04:46:15.204Z,24.40
2019-02-14T04:48:42.626Z,22.50
2019-02-14T04:51:10.044Z,22.57
2019-02-14T04:53:37.478Z,21.30
2019-02-14T04:56:04.898Z,21.17
2019-02-14T04:58:32.341Z,20.87
2019-02-14T05:00:59.761Z,21.83
2019-02-14T05:03:27.187Z,21.03
2019-02-14T05:05:54.601Z,20.87
2019-02-14T05:08:22.035Z,20.13
2019-02-14T05:10:49.481Z,20.27
2019-02-14T05:13:16.934Z,19.60
2019-02-14T05:15:44.347Z,21.20
2019-02-14T05:18:11.829Z,21.10
2019-02-14T05:20:39.250Z,21.60
2019-02-14T05:23:06.666Z,20.47
2019-02-14T05:25:34.102Z,19.10
2019-02-14T05:28:01.532Z,20.90
2019-02-14T05:30:28.966Z,19.80
2019-02-14T05:32:56.381Z,21.63
2019-02-14T05:35:23.831Z,21.00
2019-02-14T05:37:51.253Z,21.40
2019-02-14T05:40:18.695Z,20.77
2019-02-14T05:42:46.115Z,18.20
2019-02-14T05:45:13.541Z,20.57
2019-02-14T05:47:40.991Z,21.40
2019-02-14T05:50:08.407Z,21.33
2019-02-14T05:52:35.798Z,21.13
2019-02-14T05:55:03.235Z,19.90
2019-02-14T05:57:30.654Z,20.00
2019-02-14T05:59:58.064Z,20.07
2019-02-14T06:02:25.505Z,20.40
2019-02-14T06:04:52.910Z,19.00
2019-02-14T06:07:20.367Z,19.90
2019-02-14T06:09:47.772Z,21.40
2019-02-14T06:12:15.189Z,23.07
2019-02-14T06:14:42.629Z,22.47
2019-02-14T06:17:10.085Z,24.10
2019-02-14T06:19:37.496Z,21.47
2019-02-14T06:22:04.941Z,25.03
2019-02-14T06:24:32.353Z,24.13
2019-02-14T06:26:59.769Z,24.40
2019-02-14T06:29:27.220Z,22.70
2019-02-14T06:31:54.660Z,21.30
2019-02-14T06:34:22.076Z,20.87
2019-02-14T06:36:49.484Z,21.53
2019-02-14T06:39:16.936Z,23.80
2019-02-14T06:41:44.349Z,21.40
2019-02-14T06:44:11.790Z,20.47
2019-02-14T06:46:39.229Z,22.00
2019-02-14T06:49:06.665Z,20.83
2019-02-14T06:51:34.089Z,22.53
2019-02-14T06:54:01.551Z,20.53
2019-02-14T06:56:28.961Z,19.17
2019-02-14T06:58:56.377Z,29.57
2019-02-14T07:01:23.830Z,31.03
2019-02-14T07:03:51.253Z,23.13
2019-02-14T07:06:18.664Z,26.13
2019-02-14T07:08:46.108Z,25.27
2019-02-14T07:11:13.531Z,20.57
2019-02-14T07:13:40.934Z,24.13
2019-02-14T07:16:09.651Z,21.43
2019-02-14T07:18:35.776Z,20.40
2019-02-14T07:21:03.220Z,20.43
2019-02-14T07:23:30.645Z,20.87
2019-02-14T07:25:58.065Z,22.17
2019-02-14T07:28:25.507Z,20.43
2019-02-14T07:30:52.957Z,21.40
2019-02-14T07:33:20.393Z,23.47
2019-02-14T07:35:47.807Z,21.67
2019-02-14T07:38:15.252Z,21.47
2019-02-14T07:40:42.665Z,20.73
2019-02-14T07:43:10.098Z,23.33
2019-02-14T07:45:37.517Z,23.23
2019-02-14T07:48:04.955Z,22.47
2019-02-14T07:50:32.379Z,22.67
2019-02-14T07:52:59.813Z,20.57
2019-02-14T07:55:27.229Z,23.30
2019-02-14T07:57:54.645Z,24.77
2019-02-14T08:00:22.083Z,23.10
2019-02-14T08:02:49.495Z,19.60
2019-02-14T08:05:16.962Z,22.13
2019-02-14T08:07:44.359Z,21.17
2019-02-14T08:10:17.700Z,21.37
2019-02-14T08:12:45.144Z,22.90
2019-02-14T08:15:12.581Z,23.93
2019-02-14T08:17:39.998Z,21.10
2019-02-14T08:20:07.439Z,21.57
2019-02-14T08:22:34.874Z,20.87
2019-02-14T08:25:02.311Z,19.23
2019-02-14T08:27:29.732Z,21.87
2019-02-14T08:29:57.167Z,20.47
2019-02-14T08:32:24.578Z,19.80
2019-02-14T08:34:52.017Z,17.93
2019-02-14T08:37:19.428Z,19.10
2019-02-14T08:39:46.906Z,21.37
2019-02-14T08:42:14.333Z,19.50
2019-02-14T08:44:41.759Z,20.07
2019-02-14T08:47:09.213Z,21.30
2019-02-14T08:49:36.632Z,22.47
2019-02-14T08:52:04.072Z,22.40
2019-02-14T08:54:31.508Z,21.47
2019-02-14T08:56:58.924Z,21.17
2019-02-14T08:59:26.336Z,21.00
2019-02-14T09:01:53.769Z,20.70
2019-02-14T09:04:21.187Z,18.90
2019-02-14T09:06:48.623Z,16.80
2019-02-14T09:09:16.034Z,16.93
2019-02-14T09:11:43.446Z,15.50
2019-02-14T09:14:10.878Z,17.13
2019-02-14T09:16:38.288Z,15.90
2019-02-14T09:19:05.720Z,18.10
2019-02-14T09:21:33.162Z,16.50
2019-02-14T09:24:00.578Z,17.00
2019-02-14T09:26:27.987Z,15.57
2019-02-14T09:28:55.412Z,16.07
2019-02-14T09:31:22.836Z,16.50
2019-02-14T09:33:50.274Z,16.07
2019-02-14T09:36:17.680Z,16.07
2019-02-14T09:38:45.093Z,15.20
2019-02-14T09:41:12.518Z,14.40
2019-02-14T09:43:39.937Z,14.67
2019-02-14T09:46:07.377Z,13.77
2019-02-14T09:48:34.847Z,13.73
2019-02-14T09:51:02.235Z,12.70
2019-02-14T09:53:29.635Z,12.73
2019-02-14T09:55:57.086Z,13.07
2019-02-14T09:58:24.513Z,13.43
2019-02-14T10:00:51.975Z,13.43
2019-02-14T10:03:19.405Z,12.27
2019-02-14T10:05:46.818Z,13.30
2019-02-14T10:08:14.239Z,11.80
2019-02-14T10:10:41.664Z,12.07
2019-02-14T10:13:09.086Z,13.10
2019-02-14T10:15:36.521Z,12.53
2019-02-14T10:18:03.947Z,10.60
2019-02-14T10:20:31.363Z,10.50
2019-02-14T10:22:58.800Z,10.63
2019-02-14T10:25:26.235Z,8.60
2019-02-14T10:27:53.705Z,8.77
2019-02-14T10:30:21.138Z,8.40
2019-02-14T10:32:48.558Z,8.23
2019-02-14T10:35:15.982Z,8.50
2019-02-14T10:37:43.425Z,8.47
2019-02-14T10:40:10.842Z,6.83
2019-02-14T10:42:38.254Z,7.73
2019-02-14T10:45:05.690Z,7.07
2019-02-14T10:47:33.130Z,7.23
2019-02-14T10:50:00.566Z,7.43
2019-02-14T10:52:27.980Z,7.73
2019-02-14T10:54:55.418Z,7.27
2019-02-14T10:57:22.828Z,7.17
2019-02-14T10:59:50.271Z,7.27
2019-02-14T11:02:17.687Z,6.83
2019-02-14T11:04:47.033Z,6.73
2019-02-14T11:07:13.626Z,7.40
2019-02-14T11:09:39.924Z,6.93
2019-02-14T11:12:07.354Z,8.67
2019-02-14T11:14:34.766Z,6.97
2019-02-14T11:17:02.217Z,7.37
2019-02-14T11:19:29.641Z,7.00
2019-02-14T11:21:57.064Z,7.00
2019-02-14T11:24:24.492Z,6.70
2019-02-14T11:26:51.906Z,6.83
2019-02-14T11:29:19.349Z,6.97
2019-02-14T11:31:46.766Z,7.10
2019-02-14T11:34:14.185Z,7.43
2019-02-14T11:36:41.613Z,7.07
2019-02-14T11:39:09.019Z,8.00
2019-02-14T11:41:36.466Z,8.03
2019-02-14T11:44:03.882Z,7.27
2019-02-14T11:46:31.327Z,7.50
2019-02-14T11:48:58.729Z,8.00
2019-02-14T11:51:26.137Z,6.83
2019-02-14T11:53:53.567Z,7.07
2019-02-14T11:56:20.993Z,7.20
2019-02-14T11:58:48.414Z,6.93
2019-02-14T12:01:15.843Z,7.93
2019-02-14T12:03:43.244Z,7.13
2019-02-14T12:06:10.680Z,6.43
2019-02-14T12:08:38.106Z,7.63
2019-02-14T12:11:05.521Z,7.10
2019-02-14T12:13:32.952Z,7.13
2019-02-14T12:16:00.379Z,6.70
2019-02-14T12:18:27.789Z,6.93
2019-02-14T12:20:55.228Z,6.80
2019-02-14T12:23:22.640Z,7.43
2019-02-14T12:25:50.091Z,7.77
2019-02-14T12:28:17.484Z,5.93
2019-02-14T12:30:44.900Z,6.60
2019-02-14T12:33:12.336Z,6.87
2019-02-14T12:35:39.763Z,7.03
2019-02-14T12:38:07.191Z,6.70
2019-02-14T12:40:34.599Z,7.07
2019-02-14T12:43:02.015Z,6.83
2019-02-14T12:45:29.449Z,7.33
2019-02-14T12:47:56.875Z,7.30
2019-02-14T12:50:24.344Z,7.10
2019-02-14T12:52:51.745Z,7.73
2019-02-14T12:55:19.167Z,10.13
2019-02-14T12:57:46.636Z,9.83
2019-02-14T13:00:16.581Z,9.47
2019-02-14T13:02:43.991Z,9.53
2019-02-14T13:05:11.435Z,8.90
2019-02-14T13:07:38.857Z,9.00
2019-02-14T13:10:06.281Z,9.40
2019-02-14T13:12:33.715Z,9.60
2019-02-14T13:15:01.122Z,8.10
2019-02-14T13:17:28.554Z,8.63
2019-02-14T13:19:56.934Z,8.07
2019-02-14T13:22:23.397Z,7.43
2019-02-14T13:24:50.836Z,7.90
2019-02-14T13:27:18.276Z,7.27
2019-02-14T13:29:45.685Z,7.80
2019-02-14T13:32:13.660Z,7.70
2019-02-14T13:34:40.545Z,7.70
2019-02-14T13:37:07.986Z,7.83
2019-02-14T13:39:35.387Z,7.57
2019-02-14T13:42:02.805Z,7.00
2019-02-14T13:44:30.240Z,7.27
2019-02-14T13:46:57.646Z,6.83
2019-02-14T13:49:25.110Z,6.40
2019-02-14T13:51:52.527Z,5.80
2019-02-14T13:54:19.955Z,5.60
2019-02-14T13:56:53.924Z,4.97
2019-02-14T13:59:14.804Z,5.70
2019-02-14T14:01:42.210Z,5.47
2019-02-14T14:04:09.648Z,5.67
2019-02-14T14:06:37.080Z,5.20
2019-02-14T14:09:04.516Z,5.40
2019-02-14T14:11:31.927Z,5.40
2019-02-14T14:13:59.393Z,4.77
2019-02-14T14:16:26.801Z,5.30
2019-02-14T14:18:54.233Z,5.07
2019-02-14T14:21:21.633Z,5.80
2019-02-14T14:23:49.141Z,5.20
2019-02-14T14:26:16.549Z,4.77
2019-02-14T14:28:43.976Z,5.40
2019-02-14T14:31:11.408Z,5.10
2019-02-14T14:33:38.847Z,5.40
2019-02-14T14:36:06.257Z,5.70
2019-02-14T14:38:33.733Z,5.57
2019-02-14T14:41:01.133Z,7.17
2019-02-14T14:43:34.467Z,6.07
2019-02-14T14:46:01.898Z,6.70
2019-02-14T14:48:29.296Z,5.60
2019-02-14T14:50:56.737Z,6.30
2019-02-14T14:53:24.175Z,5.80
2019-02-14T14:55:51.574Z,6.47
2019-02-14T14:58:18.986Z,5.77
2019-02-14T15:00:46.446Z,6.27
2019-02-14T15:03:13.854Z,5.73
2019-02-14T15:05:41.287Z,6.00
2019-02-14T15:08:08.690Z,5.80
2019-02-14T15:10:36.161Z,5.40
2019-02-14T15:13:03.559Z,5.30
2019-02-14T15:15:30.993Z,5.23
2019-02-14T15:17:58.408Z,5.50
2019-02-14T15:20:25.814Z,5.87
2019-02-14T15:22:53.258Z,4.90
2019-02-14T15:25:20.657Z,5.43
2019-02-14T15:27:48.097Z,5.20
2019-02-14T15:30:15.518Z,5.07
2019-02-14T15:32:42.947Z,5.53
2019-02-14T15:35:10.392Z,5.20
2019-02-14T15:37:37.797Z,5.30
2019-02-14T15:40:09.314Z,5.67
2019-02-14T15:42:32.649Z,5.80
2019-02-14T15:45:00.072Z,5.97
2019-02-14T15:47:27.490Z,5.80
2019-02-14T15:49:54.924Z,5.70
2019-02-14T15:52:22.351Z,5.23
2019-02-14T15:54:49.755Z,5.80
2019-02-14T15:57:18.642Z,5.20
2019-02-14T15:59:45.468Z,5.60
2019-02-14T16:02:12.106Z,6.20
2019-02-14T16:04:39.448Z,5.70
2019-02-14T16:07:06.897Z,4.80
2019-02-14T16:09:36.020Z,5.60
2019-02-14T16:12:01.743Z,6.20
2019-02-14T16:14:29.164Z,5.17
2019-02-14T16:16:56.585Z,6.10
2019-02-14T16:19:24.019Z,5.87
2019-02-14T16:21:53.337Z,6.50
2019-02-14T16:24:18.888Z,5.93
2019-02-14T16:26:46.298Z,6.57
2019-02-14T16:29:13.742Z,8.30
2019-02-14T16:31:41.184Z,7.17
2019-02-14T16:34:08.591Z,7.93
2019-02-14T16:36:36.031Z,7.40
2019-02-14T16:39:03.445Z,7.57
2019-02-14T16:41:30.912Z,6.67
2019-02-14T16:43:58.286Z,8.63
2019-02-14T16:46:25.714Z,9.33
2019-02-14T16:48:53.210Z,8.37
2019-02-14T16:51:20.644Z,7.33
2019-02-14T16:53:48.057Z,7.70
2019-02-14T16:56:15.494Z,6.60
2019-02-14T16:58:42.948Z,6.67
2019-02-14T17:01:10.358Z,6.47
2019-02-14T17:03:37.798Z,6.00
2019-02-14T17:06:05.219Z,7.57
2019-02-14T17:08:32.655Z,6.83
2019-02-14T17:11:00.062Z,7.17
2019-02-14T17:13:27.499Z,9.17
2019-02-14T17:15:54.910Z,9.00
2019-02-14T17:18:22.610Z,9.10
2019-02-14T17:20:50.050Z,8.07
2019-02-14T17:23:17.476Z,7.27
2019-02-14T17:25:44.888Z,7.10
2019-02-14T17:28:12.336Z,6.87
2019-02-14T17:30:39.746Z,8.37
2019-02-14T17:33:07.170Z,7.00
2019-02-14T17:35:34.600Z,7.17
2019-02-14T17:38:02.019Z,7.43
2019-02-14T17:40:29.492Z,6.30
2019-02-14T17:42:56.891Z,7.13
2019-02-14T17:45:24.314Z,6.97
2019-02-14T17:47:51.768Z,7.07
2019-02-14T17:50:21.875Z,6.60
2019-02-14T17:52:49.300Z,7.03
2019-02-14T17:55:16.845Z,7.13
2019-02-14T17:57:44.275Z,6.63
2019-02-14T18:00:11.682Z,7.40
2019-02-14T18:02:39.176Z,7.13
2019-02-14T18:05:06.590Z,7.27
2019-02-14T18:07:34.054Z,6.97
2019-02-14T18:10:01.812Z,9.13
2019-02-14T18:12:29.302Z,9.00
2019-02-14T18:14:56.725Z,8.03
2019-02-14T18:17:24.166Z,8.13
2019-02-14T18:19:51.583Z,7.97
2019-02-14T18:22:19.032Z,8.10
2019-02-14T18:24:46.503Z,8.10
2019-02-14T18:27:13.921Z,7.90
2019-02-14T18:29:41.365Z,7.67
2019-02-14T18:32:08.780Z,8.10
2019-02-14T18:34:36.196Z,9.23
2019-02-14T18:37:03.647Z,7.93
2019-02-14T18:39:31.090Z,8.30
2019-02-14T18:41:58.502Z,8.33
2019-02-14T18:44:25.953Z,9.27
2019-02-14T18:46:53.395Z,8.53
2019-02-14T18:49:20.841Z,9.00
2019-02-14T18:51:48.323Z,9.43
2019-02-14T18:54:15.771Z,9.27
2019-02-14T18:56:43.180Z,9.07
2019-02-14T18:59:10.624Z,9.93
2019-02-14T19:01:38.080Z,9.27
2019-02-14T19:04:05.574Z,9.20
2019-02-14T19:06:33.033Z,9.87
2019-02-14T19:09:00.487Z,12.77
2019-02-14T19:11:27.934Z,12.47
2019-02-14T19:13:55.338Z,11.77
2019-02-14T19:16:22.840Z,12.20
2019-02-14T19:18:50.273Z,12.70
2019-02-14T19:21:17.765Z,12.53
2019-02-14T19:23:45.208Z,13.03
2019-02-14T19:26:12.665Z,13.47
2019-02-14T19:28:40.106Z,13.83
2019-02-14T19:31:07.559Z,14.03
2019-02-14T19:33:35.042Z,14.73
2019-02-14T19:36:02.455Z,13.53
2019-02-14T19:38:29.897Z,11.90
2019-02-14T19:40:57.327Z,12.13
2019-02-14T19:43:24.777Z,11.63
2019-02-14T19:45:52.220Z,11.40
2019-02-14T19:48:19.653Z,11.90
2019-02-14T19:50:47.099Z,11.87
2019-02-14T19:53:14.525Z,12.40
2019-02-14T19:55:41.979Z,12.47
2019-02-14T19:58:09.471Z,13.37
2019-02-14T20:00:36.915Z,14.20
2019-02-14T20:03:04.451Z,14.03
2019-02-14T20:05:31.839Z,13.80
2019-02-14T20:07:59.256Z,13.43
2019-02-14T20:10:26.669Z,13.33
2019-02-14T20:12:54.118Z,14.20
2019-02-14T20:15:21.547Z,15.17
2019-02-14T20:17:49.019Z,15.40
2019-02-14T20:20:16.430Z,18.33
2019-02-14T20:22:43.906Z,17.30
2019-02-14T20:25:20.317Z,18.87
2019-02-14T20:27:49.987Z,18.17
2019-02-14T20:30:15.313Z,17.97
2019-02-14T20:32:42.672Z,17.70
2019-02-14T20:35:10.093Z,17.60
2019-02-14T20:37:37.517Z,17.53
2019-02-14T20:40:07.677Z,17.57
2019-02-14T20:42:35.131Z,18.47
2019-02-14T20:45:02.609Z,18.33
2019-02-14T20:47:30.052Z,17.23
2019-02-14T20:49:57.469Z,16.40
2019-02-14T20:52:24.928Z,16.57
2019-02-14T20:54:52.348Z,17.10
2019-02-14T20:57:19.911Z,14.87
2019-02-14T20:59:47.297Z,18.57
2019-02-14T21:02:14.774Z,15.07
2019-02-14T21:04:42.284Z,14.87
2019-02-14T21:07:09.756Z,16.13
2019-02-14T21:09:37.272Z,15.50
2019-02-14T21:12:04.708Z,16.90
2019-02-14T21:14:32.150Z,15.87
2019-02-14T21:16:59.617Z,16.50
2019-02-14T21:19:27.071Z,15.60
2019-02-14T21:21:54.489Z,18.17
2019-02-14T21:24:21.944Z,19.17
2019-02-14T21:26:49.379Z,18.53
2019-02-14T21:29:16.797Z,17.83
2019-02-14T21:31:44.236Z,16.87
2019-02-14T21:34:11.751Z,14.50
2019-02-14T21:36:39.121Z,17.73
2019-02-14T21:39:06.650Z,17.10
2019-02-14T21:41:34.114Z,17.57
2019-02-14T21:44:01.591Z,17.93
2019-02-14T21:46:29.073Z,18.10
2019-02-14T21:48:56.532Z,16.70
2019-02-14T21:51:23.965Z,13.10
2019-02-14T21:53:51.398Z,16.87
2019-02-14T21:56:18.898Z,15.60
2019-02-14T21:58:46.346Z,17.00
2019-02-14T22:01:13.774Z,16.77
2019-02-14T22:03:41.249Z,15.80
2019-02-14T22:06:08.681Z,16.00
2019-02-14T22:08:36.103Z,15.50
2019-02-14T22:11:03.533Z,14.70
2019-02-14T22:13:30.993Z,9.60
2019-02-14T22:15:58.580Z,14.53
2019-02-14T22:18:26.012Z,13.80
2019-02-14T22:20:53.440Z,15.20
2019-02-14T22:23:20.900Z,14.83
2019-02-14T22:25:48.347Z,14.97
2019-02-14T22:28:15.783Z,10.33
2019-02-14T22:30:43.227Z,12.60
2019-02-14T22:33:10.651Z,14.27
2019-02-14T22:35:38.099Z,13.63
2019-02-14T22:38:05.554Z,13.23
2019-02-14T22:40:32.986Z,14.27
2019-02-14T22:43:00.409Z,14.10
2019-02-14T22:45:27.864Z,14.27
2019-02-14T22:47:55.276Z,14.50
2019-02-14T22:50:22.712Z,13.80
2019-02-14T22:52:50.132Z,14.63
2019-02-14T22:55:17.586Z,13.77
2019-02-14T22:57:44.997Z,14.07
2019-02-14T23:00:27.729Z,12.97
2019-02-14T23:02:55.144Z,11.83
2019-02-14T23:05:22.583Z,13.53
2019-02-14T23:07:49.991Z,12.97
2019-02-14T23:10:17.425Z,13.50
2019-02-14T23:12:44.841Z,13.03
2019-02-14T23:15:12.271Z,14.20
2019-02-14T23:17:39.685Z,12.50
2019-02-14T23:20:07.123Z,12.77
2019-02-14T23:22:34.558Z,12.97
2019-02-14T23:25:01.981Z,13.40
2019-02-14T23:27:29.413Z,13.30
2019-02-14T23:29:56.851Z,13.80
2019-02-14T23:32:24.308Z,13.03
2019-02-14T23:34:51.754Z,11.90
2019-02-14T23:37:19.199Z,12.50
2019-02-14T23:39:46.619Z,14.13
2019-02-14T23:42:14.065Z,13.30
2019-02-14T23:44:41.499Z,12.30
2019-02-14T23:47:08.933Z,11.27
2019-02-14T23:49:36.389Z,12.80
2019-02-14T23:52:03.848Z,12.57
2019-02-14T23:54:31.276Z,12.70
2019-02-14T23:56:58.696Z,11.97
2019-02-14T23:59:26.138Z,12.27
